^^
Meteo Knjazevac Station Historical Data
Daily Summary for July 4, 2021 Units:  Metric    English   Both
Daily Weekly Monthly Yearly Custom
  High: Low: Average:
Temperature: 19.1 °C 14.4 °C 16.4 °C
Dew Point: 15.4 °C 12.9 °C 14.1 °C
Humidity: 91% 79% 86%
Wind Speed: 3.2km/h 0km/h 0.8km/h
Wind Gust: 6.4km/h - -
Wind- - West
Pressure: 1018.5 hPa 1016.8 hPa -
Precipitation: 0 mm    
Historical Graphs
 
 
Tabular Data for July 4, 2021
Time Temperature Dew Point Pressure Wind Wind Speed Wind Gust Humidity Rainfall Rate (Hourly) solar Conditions
00:00 19.1 °C 15.4 °C 1016.8 hPa Calm   3.2 km/h 79% 0 mm 0 W/m2
00:10 18.9 °C 15.4 °C 1016.8 hPa Calm   3.2 km/h 80% 0 mm 0 W/m2
00:20 18.6 °C 15.1 °C 1016.8 hPa Calm   3.2 km/h 80% 0 mm 0 W/m2
00:30 18.4 °C 14.9 °C 1016.8 hPa WNW 1.6 km/h 3.2 km/h 80% 0 mm 0 W/m2
00:40 18.3 °C 15 °C 1016.8 hPa WNW 1.6 km/h 3.2 km/h 81% 0 mm 0 W/m2
00:50 18.2 °C 14.7 °C 1016.8 hPa West 1.6 km/h 4.8 km/h 80% 0 mm 0 W/m2
01:00 18.1 °C 14.8 °C 1016.8 hPa WSW 1.6 km/h 4.8 km/h 81% 0 mm 0 W/m2
01:10 17.9 °C 14.9 °C 1016.8 hPa West 1.6 km/h 3.2 km/h 83% 0 mm 0 W/m2
01:20 17.7 °C 14.8 °C 1016.8 hPa Calm   3.2 km/h 83% 0 mm 0 W/m2
01:30 17.5 °C 14.6 °C 1016.8 hPa Calm   3.2 km/h 83% 0 mm 0 W/m2
01:40 17.3 °C 14.6 °C 1017.2 hPa West 1.6 km/h 3.2 km/h 84% 0 mm 0 W/m2
01:50 17.1 °C 14.6 °C 1017.2 hPa WSW 1.6 km/h 4.8 km/h 85% 0 mm 0 W/m2
02:00 17.1 °C 14.4 °C 1017.2 hPa Calm   4.8 km/h 84% 0 mm 0 W/m2
02:10 17.1 °C 14.6 °C 1017.2 hPa Calm     85% 0 mm 0 W/m2
02:20 17 °C 14.4 °C 1017.2 hPa Calm     85% 0 mm 0 W/m2
02:30 16.9 °C 14.3 °C 1017.2 hPa Calm   3.2 km/h 85% 0 mm 0 W/m2
02:40 16.6 °C 14.1 °C 1017.2 hPa WSW 1.6 km/h 3.2 km/h 85% 0 mm 0 W/m2
02:50 16.4 °C 14.1 °C 1017.2 hPa Calm   4.8 km/h 86% 0 mm 0 W/m2
03:00 16.2 °C 13.8 °C 1017.2 hPa WSW 1.6 km/h 3.2 km/h 86% 0 mm 0 W/m2
03:10 16 °C 14 °C 1017.2 hPa West 3.2 km/h 4.8 km/h 88% 0 mm 0 W/m2
03:20 16 °C 14 °C 1017.2 hPa WNW 1.6 km/h 4.8 km/h 88% 0 mm 0 W/m2
03:30 16 °C 14 °C 1017.2 hPa WNW 1.6 km/h 4.8 km/h 88% 0 mm 0 W/m2
03:40 15.9 °C 13.9 °C 1017.5 hPa Calm   1.6 km/h 88% 0 mm 0 W/m2
03:50 15.9 °C 13.9 °C 1017.5 hPa Calm   1.6 km/h 88% 0 mm 0 W/m2
04:00 15.8 °C 13.8 °C 1017.5 hPa WNW 1.6 km/h 3.2 km/h 88% 0 mm 0 W/m2
04:10 15.7 °C 13.9 °C 1017.5 hPa Calm   3.2 km/h 89% 0 mm 0 W/m2
04:20 15.6 °C 13.6 °C 1017.5 hPa Calm   3.2 km/h 88% 0 mm 0 W/m2
04:30 15.5 °C 13.7 °C 1017.5 hPa Calm   3.2 km/h 89% 0 mm 0 W/m2
04:40 15.3 °C 13.5 °C 1017.8 hPa WNW 1.6 km/h 3.2 km/h 89% 0 mm 0 W/m2
04:50 15.3 °C 13.5 °C 1017.8 hPa West 1.6 km/h 3.2 km/h 89% 0 mm 0 W/m2
05:00 15.3 °C 13.7 °C 1017.8 hPa Calm   3.2 km/h 90% 0 mm 0 W/m2
05:10 15.2 °C 13.6 °C 1017.8 hPa NW 1.6 km/h 6.4 km/h 90% 0 mm 0 W/m2
05:20 15.2 °C 13.4 °C 1017.8 hPa WNW 1.6 km/h 3.2 km/h 89% 0 mm 0 W/m2
05:30 15 °C 13.2 °C 1017.8 hPa Calm     89% 0 mm 6 W/m2
05:40 14.8 °C 13.2 °C 1017.8 hPa West 1.6 km/h 3.2 km/h 90% 0 mm 14 W/m2
05:50 14.5 °C 12.9 °C 1017.8 hPa Calm   4.8 km/h 90% 0.25 mm 23 W/m2
06:00 14.4 °C 12.9 °C 1018.2 hPa WNW 1.6 km/h 3.2 km/h 91% 0 mm 33 W/m2
06:10 14.4 °C 12.9 °C 1018.2 hPa Calm   3.2 km/h 91% 0 mm 57 W/m2
06:20 14.4 °C 12.9 °C 1018.5 hPa Calm   3.2 km/h 91% 0 mm 77 W/m2
06:30 14.5 °C 13.1 °C 1018.5 hPa NW 1.6 km/h 3.2 km/h 91% 0 mm 101 W/m2
Knjazevac, Serbia
Compliments of Weather Underground - 2 mb